Time,TemperatureF,DewpointF,PressureIn,WindDirection,WindDirectionDegrees,WindSpeedMPH,WindSpeedGustMPH,Humidity,HourlyPrecipIn,Conditions,Clouds,dailyrainin,SoftwareType,DateUTC
2013-09-15 00:13:00,54.0,46.0,30.01,SSE,156,0.0,0.0,73,0.00,,,0.00,,2013-09-15 05:13:00,
2013-09-15 00:22:00,53.0,45.0,30.01,SSE,156,0.0,0.0,74,0.00,,,0.00,,2013-09-15 05:22:00,
2013-09-15 00:52:00,52.0,45.0,30.01,SSE,156,0.0,0.0,76,0.00,,,0.00,,2013-09-15 05:52:00,
2013-09-15 01:12:00,53.0,46.0,30.00,SSE,156,0.0,0.0,76,0.00,,,0.00,,2013-09-15 06:12:00,
2013-09-15 01:21:00,53.0,45.0,30.01,SSE,156,0.0,1.0,75,0.00,,,0.00,,2013-09-15 06:21:00,
2013-09-15 01:52:00,53.0,45.0,30.01,SSE,156,0.0,1.0,75,0.00,,,0.00,,2013-09-15 06:52:00,
2013-09-15 02:11:00,53.0,45.0,30.01,SSE,156,0.0,0.0,75,0.00,,,0.00,,2013-09-15 07:11:00,
2013-09-15 02:22:00,53.0,45.0,30.01,SSE,156,0.0,0.0,75,0.00,,,0.00,,2013-09-15 07:22:00,
2013-09-15 02:52:00,52.0,45.0,30.00,SSE,156,0.0,0.0,77,0.00,,,0.00,,2013-09-15 07:52:00,
2013-09-15 03:11:00,52.0,45.0,30.00,SSE,156,0.0,0.0,78,0.00,,,0.00,,2013-09-15 08:11:00,
2013-09-15 03:52:00,53.0,46.0,30.00,ESE,122,0.0,5.0,76,0.00,,,0.00,,2013-09-15 08:52:00,
2013-09-15 04:12:00,53.0,46.0,30.00,ESE,122,0.0,3.0,76,0.00,,,0.00,,2013-09-15 09:12:00,
2013-09-15 04:22:00,53.0,46.0,30.00,ESE,122,0.0,1.0,76,0.00,,,0.00,,2013-09-15 09:22:00,
2013-09-15 04:53:00,53.0,46.0,30.00,ESE,105,0.0,3.0,76,0.00,,,0.00,,2013-09-15 09:53:00,
2013-09-15 05:13:00,53.0,46.0,30.01,ESE,105,0.0,0.0,76,0.00,,,0.00,,2013-09-15 10:13:00,
2013-09-15 05:23:00,53.0,46.0,30.01,ESE,105,0.0,0.0,77,0.00,,,0.00,,2013-09-15 10:23:00,
2013-09-15 05:53:00,52.0,46.0,30.02,ESE,105,0.0,0.0,79,0.00,,,0.00,,2013-09-15 10:53:00,
2013-09-15 06:22:00,51.0,45.0,30.03,ESE,105,0.0,0.0,81,0.00,,,0.00,,2013-09-15 11:22:00,
2013-09-15 06:52:00,51.0,46.0,30.03,ESE,105,0.0,0.0,83,0.00,,,0.00,,2013-09-15 11:52:00,
2013-09-15 07:11:00,51.0,46.0,30.04,ESE,108,0.0,5.0,84,0.00,,,0.00,,2013-09-15 12:11:00,
2013-09-15 07:12:00,50.0,45.0,30.04,ESE,105,0.0,0.0,83,0.00,,,0.00,,2013-09-15 12:12:00,
2013-09-15 07:21:00,51.0,46.0,30.04,ESE,108,0.0,3.0,84,0.00,,,0.00,,2013-09-15 12:21:00,
2013-09-15 07:42:00,51.0,46.0,30.04,ESE,108,0.0,5.0,84,0.00,,,0.00,,2013-09-15 12:42:00,
2013-09-15 07:52:00,51.0,46.0,30.04,ESE,108,0.0,5.0,84,0.00,,,0.00,,2013-09-15 12:52:00,
2013-09-15 09:22:00,58.0,50.0,30.03,SSE,158,0.0,3.0,74,0.00,,,0.00,,2013-09-15 14:22:00,
2013-09-15 14:22:00,76.0,50.0,29.95,SE,128,2.0,10.0,40,0.00,,,0.00,,2013-09-15 19:22:00,
2013-09-15 14:52:00,76.0,50.0,29.92,ESE,118,2.0,6.0,40,0.00,,,0.00,,2013-09-15 19:52:00,
2013-09-15 15:11:00,76.0,49.0,29.92,SE,136,2.0,6.0,39,0.00,,,0.00,,2013-09-15 20:11:00,
2013-09-15 15:22:00,76.0,49.0,29.92,South,182,1.0,8.0,39,0.00,,,0.00,,2013-09-15 20:22:00,
2013-09-15 15:53:00,75.0,49.0,29.93,SE,141,1.0,5.0,40,0.00,,,0.00,,2013-09-15 20:53:00,
2013-09-15 16:11:00,75.0,48.0,29.93,SSE,157,0.0,3.0,39,0.00,,,0.00,,2013-09-15 21:11:00,
2013-09-15 16:21:00,74.0,49.0,29.93,SE,131,0.0,3.0,41,0.00,,,0.00,,2013-09-15 21:21:00,
2013-09-15 16:54:00,74.0,51.0,29.93,SSW,194,0.0,3.0,45,0.00,,,0.00,,2013-09-15 21:54:00,
2013-09-15 17:14:00,74.0,54.0,29.93,SSW,192,0.0,0.0,49,0.00,,,0.00,,2013-09-15 22:14:00,
2013-09-15 17:23:00,73.0,52.0,29.93,SSE,150,0.0,1.0,48,0.00,,,0.00,,2013-09-15 22:23:00,
2013-09-15 17:53:00,73.0,55.0,29.95,SSE,150,0.0,1.0,54,0.00,,,0.00,,2013-09-15 22:53:00,
2013-09-15 18:12:00,69.0,57.0,29.95,SE,137,0.0,3.0,66,0.04,,,0.04,,2013-09-15 23:12:00,
2013-09-15 18:22:00,65.0,57.0,29.96,NNE,17,0.0,2.0,76,0.06,,,0.06,,2013-09-15 23:22:00,
2013-09-15 18:53:00,64.0,59.0,29.97,NNE,17,0.0,1.0,83,0.06,,,0.06,,2013-09-15 23:53:00,
2013-09-15 19:11:00,64.0,59.0,29.97,NNE,17,0.0,0.0,83,0.02,,,0.06,,2013-09-16 00:11:00,
2013-09-15 19:22:00,63.0,58.0,29.97,NNE,17,0.0,0.0,85,0.00,,,0.06,,2013-09-16 00:22:00,
2013-09-15 19:42:00,64.0,59.0,29.97,NNE,17,0.0,0.0,85,0.00,,,0.06,,2013-09-16 00:42:00,
2013-09-15 19:52:00,64.0,60.0,29.97,North,5,0.0,3.0,87,0.00,,,0.06,,2013-09-16 00:52:00,
2013-09-15 20:12:00,64.0,60.0,29.97,North,5,0.0,0.0,87,0.00,,,0.06,,2013-09-16 01:12:00,
2013-09-15 20:21:00,64.0,60.0,29.98,North,5,0.0,0.0,86,0.00,,,0.06,,2013-09-16 01:21:00,
2013-09-15 20:42:00,64.0,60.0,29.98,North,5,0.0,0.0,86,0.00,,,0.06,,2013-09-16 01:42:00,
2013-09-15 20:52:00,64.0,59.0,29.99,NNW,347,2.0,5.0,85,0.00,,,0.06,,2013-09-16 01:52:00,
2013-09-15 21:22:00,63.0,58.0,30.01,NNW,342,3.0,9.0,85,0.00,,,0.06,,2013-09-16 02:22:00,
2013-09-15 21:42:00,63.0,58.0,30.01,North,358,3.0,8.0,85,0.00,,,0.06,,2013-09-16 02:42:00,
2013-09-15 21:52:00,63.0,59.0,30.01,NNW,328,3.0,8.0,87,0.00,,,0.06,,2013-09-16 02:52:00,
2013-09-15 22:11:00,63.0,59.0,30.01,NW,322,3.0,12.0,87,0.00,,,0.06,,2013-09-16 03:11:00,
2013-09-15 22:22:00,62.0,59.0,30.03,NW,318,3.0,7.0,89,0.00,,,0.06,,2013-09-16 03:22:00,
2013-09-15 22:55:00,62.0,59.0,30.03,NE,54,2.0,5.0,90,0.01,,,0.07,,2013-09-16 03:55:00,
2013-09-15 23:13:00,62.0,59.0,30.03,North,11,1.0,5.0,90,0.01,,,0.07,,2013-09-16 04:13:00,
2013-09-15 23:24:00,61.0,58.0,30.03,NNE,28,1.0,6.0,91,0.01,,,0.07,,2013-09-16 04:24:00,
2013-09-15 23:54:00,61.0,58.0,30.02,NNE,23,2.0,6.0,91,0.00,,,0.07,,2013-09-16 04:54:00,